sensor_id;sensor_type;location;lat;lon;timestamp;temperature;humidity
10312;DHT22;5201;48.776;9.128;2022-11-15T00:01:48;11.30;99.90
10312;DHT22;5201;48.776;9.128;2022-11-15T00:04:14;11.30;99.90
10312;DHT22;5201;48.776;9.128;2022-11-15T00:06:39;11.30;99.90
10312;DHT22;5201;48.776;9.128;2022-11-15T00:09:05;11.70;99.90
10312;DHT22;5201;48.776;9.128;2022-11-15T00:11:31;11.40;99.90
10312;DHT22;5201;48.776;9.128;2022-11-15T00:13:57;11.80;99.90
10312;DHT22;5201;48.776;9.128;2022-11-15T00:16:23;11.50;99.90
10312;DHT22;5201;48.776;9.128;2022-11-15T00:18:49;11.50;99.90
10312;DHT22;5201;48.776;9.128;2022-11-15T00:21:16;11.50;99.90
10312;DHT22;5201;48.776;9.128;2022-11-15T00:23:41;11.50;99.90
10312;DHT22;5201;48.776;9.128;2022-11-15T00:26:11;11.40;99.90
10312;DHT22;5201;48.776;9.128;2022-11-15T00:28:37;11.50;99.90
10312;DHT22;5201;48.776;9.128;2022-11-15T00:31:05;11.50;99.90
10312;DHT22;5201;48.776;9.128;2022-11-15T00:33:31;11.50;99.90
10312;DHT22;5201;48.776;9.128;2022-11-15T00:36:06;11.50;99.90
10312;DHT22;5201;48.776;9.128;2022-11-15T00:38:36;11.70;99.90
10312;DHT22;5201;48.776;9.128;2022-11-15T00:41:04;11.70;99.90
10312;DHT22;5201;48.776;9.128;2022-11-15T00:43:30;11.70;99.90
10312;DHT22;5201;48.776;9.128;2022-11-15T00:45:56;11.60;99.90
10312;DHT22;5201;48.776;9.128;2022-11-15T00:48:22;11.60;99.90
10312;DHT22;5201;48.776;9.128;2022-11-15T00:50:48;11.60;99.90
10312;DHT22;5201;48.776;9.128;2022-11-15T00:53:14;11.60;99.90
10312;DHT22;5201;48.776;9.128;2022-11-15T00:55:39;11.50;99.90
10312;DHT22;5201;48.776;9.128;2022-11-15T00:58:05;11.50;99.90
10312;DHT22;5201;48.776;9.128;2022-11-15T01:00:30;11.50;99.90
10312;DHT22;5201;48.776;9.128;2022-11-15T01:02:56;11.50;99.90
10312;DHT22;5201;48.776;9.128;2022-11-15T01:05:22;11.70;99.90
10312;DHT22;5201;48.776;9.128;2022-11-15T01:07:51;11.30;99.90
10312;DHT22;5201;48.776;9.128;2022-11-15T01:10:18;11.50;99.90
10312;DHT22;5201;48.776;9.128;2022-11-15T01:12:43;11.50;99.90
10312;DHT22;5201;48.776;9.128;2022-11-15T01:15:09;11.50;99.90
10312;DHT22;5201;48.776;9.128;2022-11-15T01:17:35;11.40;99.90
10312;DHT22;5201;48.776;9.128;2022-11-15T01:20:00;11.30;99.90
10312;DHT22;5201;48.776;9.128;2022-11-15T01:22:26;11.30;99.90
10312;DHT22;5201;48.776;9.128;2022-11-15T01:24:52;11.40;99.90
10312;DHT22;5201;48.776;9.128;2022-11-15T01:27:17;11.20;99.90
10312;DHT22;5201;48.776;9.128;2022-11-15T01:29:43;11.10;99.90
10312;DHT22;5201;48.776;9.128;2022-11-15T01:32:09;11.10;99.90
10312;DHT22;5201;48.776;9.128;2022-11-15T01:34:34;11.00;99.90
10312;DHT22;5201;48.776;9.128;2022-11-15T01:37:00;12.50;99.90
10312;DHT22;5201;48.776;9.128;2022-11-15T01:39:26;11.10;99.90
10312;DHT22;5201;48.776;9.128;2022-11-15T01:41:52;10.80;99.90
10312;DHT22;5201;48.776;9.128;2022-11-15T01:44:44;11.90;99.90
10312;DHT22;5201;48.776;9.128;2022-11-15T01:47:20;10.60;99.90
10312;DHT22;5201;48.776;9.128;2022-11-15T01:49:52;10.60;99.90
10312;DHT22;5201;48.776;9.128;2022-11-15T01:52:21;10.50;99.90
10312;DHT22;5201;48.776;9.128;2022-11-15T01:54:50;10.40;99.90
10312;DHT22;5201;48.776;9.128;2022-11-15T01:57:18;10.30;99.90
10312;DHT22;5201;48.776;9.128;2022-11-15T01:59:45;10.80;99.90
10312;DHT22;5201;48.776;9.128;2022-11-15T02:02:11;10.20;99.90
10312;DHT22;5201;48.776;9.128;2022-11-15T02:04:47;10.20;99.90
10312;DHT22;5201;48.776;9.128;2022-11-15T02:07:18;10.20;99.90
10312;DHT22;5201;48.776;9.128;2022-11-15T02:09:45;10.10;99.90
10312;DHT22;5201;48.776;9.128;2022-11-15T02:12:14;10.20;99.90
10312;DHT22;5201;48.776;9.128;2022-11-15T02:14:43;10.20;99.90
10312;DHT22;5201;48.776;9.128;2022-11-15T02:17:20;10.10;99.90
10312;DHT22;5201;48.776;9.128;2022-11-15T02:31:02;9.70;99.90
10312;DHT22;5201;48.776;9.128;2022-11-15T02:33:41;9.70;99.90
10312;DHT22;5201;48.776;9.128;2022-11-15T02:36:22;9.60;99.90
10312;DHT22;5201;48.776;9.128;2022-11-15T02:39:00;9.70;99.90
10312;DHT22;5201;48.776;9.128;2022-11-15T02:41:34;9.70;99.90
10312;DHT22;5201;48.776;9.128;2022-11-15T02:44:23;9.70;99.90
10312;DHT22;5201;48.776;9.128;2022-11-15T02:49:37;10.00;99.90
10312;DHT22;5201;48.776;9.128;2022-11-15T02:52:04;10.90;99.90
10312;DHT22;5201;48.776;9.128;2022-11-15T02:54:32;10.20;99.90
10312;DHT22;5201;48.776;9.128;2022-11-15T02:57:04;10.30;99.90
10312;DHT22;5201;48.776;9.128;2022-11-15T03:02:40;10.50;99.90
10312;DHT22;5201;48.776;9.128;2022-11-15T03:05:30;10.60;99.90
10312;DHT22;5201;48.776;9.128;2022-11-15T03:13:49;10.30;99.90
10312;DHT22;5201;48.776;9.128;2022-11-15T03:19:00;10.30;99.90
10312;DHT22;5201;48.776;9.128;2022-11-15T03:21:28;10.40;99.90
10312;DHT22;5201;48.776;9.128;2022-11-15T03:23:58;10.30;99.90
10312;DHT22;5201;48.776;9.128;2022-11-15T03:26:26;10.20;99.90
10312;DHT22;5201;48.776;9.128;2022-11-15T03:29:04;10.10;99.90
10312;DHT22;5201;48.776;9.128;2022-11-15T03:31:34;10.20;99.90
10312;DHT22;5201;48.776;9.128;2022-11-15T03:37:01;10.20;99.90
10312;DHT22;5201;48.776;9.128;2022-11-15T03:39:28;10.10;99.90
10312;DHT22;5201;48.776;9.128;2022-11-15T03:44:43;10.20;99.90
10312;DHT22;5201;48.776;9.128;2022-11-15T03:47:23;10.30;99.90
10312;DHT22;5201;48.776;9.128;2022-11-15T03:49:53;10.40;99.90
10312;DHT22;5201;48.776;9.128;2022-11-15T03:52:22;10.60;99.90
10312;DHT22;5201;48.776;9.128;2022-11-15T03:54:51;10.60;99.90
10312;DHT22;5201;48.776;9.128;2022-11-15T03:57:17;10.60;99.90
10312;DHT22;5201;48.776;9.128;2022-11-15T03:59:43;10.60;99.90
10312;DHT22;5201;48.776;9.128;2022-11-15T04:02:09;10.60;99.90
10312;DHT22;5201;48.776;9.128;2022-11-15T04:04:34;11.00;99.90
10312;DHT22;5201;48.776;9.128;2022-11-15T04:07:00;10.70;99.90
10312;DHT22;5201;48.776;9.128;2022-11-15T04:09:25;10.70;99.90
10312;DHT22;5201;48.776;9.128;2022-11-15T04:11:51;10.80;99.90
10312;DHT22;5201;48.776;9.128;2022-11-15T04:14:16;10.80;99.90
10312;DHT22;5201;48.776;9.128;2022-11-15T04:16:42;10.70;99.90
10312;DHT22;5201;48.776;9.128;2022-11-15T04:19:07;10.70;99.90
10312;DHT22;5201;48.776;9.128;2022-11-15T04:21:51;10.80;99.90
10312;DHT22;5201;48.776;9.128;2022-11-15T04:24:36;10.80;99.90
10312;DHT22;5201;48.776;9.128;2022-11-15T04:27:01;11.20;99.90
10312;DHT22;5201;48.776;9.128;2022-11-15T04:29:27;11.00;99.90
10312;DHT22;5201;48.776;9.128;2022-11-15T04:32:05;11.40;99.90
10312;DHT22;5201;48.776;9.128;2022-11-15T04:34:31;10.90;99.90
10312;DHT22;5201;48.776;9.128;2022-11-15T04:36:58;11.00;99.90
10312;DHT22;5201;48.776;9.128;2022-11-15T04:39:42;10.90;99.90
10312;DHT22;5201;48.776;9.128;2022-11-15T04:42:08;11.20;99.90
10312;DHT22;5201;48.776;9.128;2022-11-15T04:44:34;9.00;99.90
10312;DHT22;5201;48.776;9.128;2022-11-15T04:47:00;11.20;99.90
10312;DHT22;5201;48.776;9.128;2022-11-15T04:49:26;10.90;99.90
10312;DHT22;5201;48.776;9.128;2022-11-15T04:51:51;10.80;99.90
10312;DHT22;5201;48.776;9.128;2022-11-15T04:54:17;10.70;99.90
10312;DHT22;5201;48.776;9.128;2022-11-15T04:56:42;10.70;99.90
10312;DHT22;5201;48.776;9.128;2022-11-15T04:59:08;10.60;99.90
10312;DHT22;5201;48.776;9.128;2022-11-15T05:01:33;10.50;99.90
10312;DHT22;5201;48.776;9.128;2022-11-15T05:03:59;11.10;99.90
10312;DHT22;5201;48.776;9.128;2022-11-15T05:06:43;10.50;99.90
10312;DHT22;5201;48.776;9.128;2022-11-15T05:09:09;10.50;99.90
10312;DHT22;5201;48.776;9.128;2022-11-15T05:11:35;10.50;99.90
10312;DHT22;5201;48.776;9.128;2022-11-15T05:14:00;10.50;99.90
10312;DHT22;5201;48.776;9.128;2022-11-15T05:16:26;10.50;99.90
10312;DHT22;5201;48.776;9.128;2022-11-15T05:18:53;10.50;99.90
10312;DHT22;5201;48.776;9.128;2022-11-15T05:21:19;10.40;99.90
10312;DHT22;5201;48.776;9.128;2022-11-15T05:23:44;10.30;99.90
10312;DHT22;5201;48.776;9.128;2022-11-15T05:26:11;10.20;99.90
10312;DHT22;5201;48.776;9.128;2022-11-15T05:28:37;10.50;99.90
10312;DHT22;5201;48.776;9.128;2022-11-15T05:31:12;10.90;99.90
10312;DHT22;5201;48.776;9.128;2022-11-15T05:33:39;10.10;99.90
10312;DHT22;5201;48.776;9.128;2022-11-15T05:36:07;10.10;99.90
10312;DHT22;5201;48.776;9.128;2022-11-15T05:38:35;10.10;99.90
10312;DHT22;5201;48.776;9.128;2022-11-15T05:41:01;10.20;99.90
10312;DHT22;5201;48.776;9.128;2022-11-15T05:43:29;10.30;99.90
10312;DHT22;5201;48.776;9.128;2022-11-15T05:45:56;10.30;99.90
10312;DHT22;5201;48.776;9.128;2022-11-15T05:48:22;10.40;99.90
10312;DHT22;5201;48.776;9.128;2022-11-15T05:50:48;10.40;99.90
10312;DHT22;5201;48.776;9.128;2022-11-15T05:53:16;10.80;99.90
10312;DHT22;5201;48.776;9.128;2022-11-15T05:55:42;10.60;99.90
10312;DHT22;5201;48.776;9.128;2022-11-15T05:58:08;10.70;99.90
10312;DHT22;5201;48.776;9.128;2022-11-15T06:00:34;10.60;99.90
10312;DHT22;5201;48.776;9.128;2022-11-15T06:03:00;10.60;99.90
10312;DHT22;5201;48.776;9.128;2022-11-15T06:05:25;10.60;99.90
10312;DHT22;5201;48.776;9.128;2022-11-15T06:07:51;10.50;99.90
10312;DHT22;5201;48.776;9.128;2022-11-15T06:10:16;10.60;99.90
10312;DHT22;5201;48.776;9.128;2022-11-15T06:12:42;11.00;99.90
10312;DHT22;5201;48.776;9.128;2022-11-15T06:15:08;10.50;99.90
10312;DHT22;5201;48.776;9.128;2022-11-15T06:17:33;10.50;99.90
10312;DHT22;5201;48.776;9.128;2022-11-15T06:19:59;10.60;99.90
10312;DHT22;5201;48.776;9.128;2022-11-15T06:22:25;10.70;99.90
10312;DHT22;5201;48.776;9.128;2022-11-15T06:24:50;10.70;99.90
10312;DHT22;5201;48.776;9.128;2022-11-15T06:27:16;10.80;99.90
10312;DHT22;5201;48.776;9.128;2022-11-15T06:29:41;10.60;99.90
10312;DHT22;5201;48.776;9.128;2022-11-15T06:32:07;11.70;99.90
10312;DHT22;5201;48.776;9.128;2022-11-15T06:34:32;10.40;99.90
10312;DHT22;5201;48.776;9.128;2022-11-15T06:36:58;10.20;99.90
10312;DHT22;5201;48.776;9.128;2022-11-15T06:39:24;10.20;99.90
10312;DHT22;5201;48.776;9.128;2022-11-15T06:41:49;10.40;99.90
10312;DHT22;5201;48.776;9.128;2022-11-15T06:44:15;10.10;99.90
10312;DHT22;5201;48.776;9.128;2022-11-15T06:46:41;10.10;99.90
10312;DHT22;5201;48.776;9.128;2022-11-15T06:49:07;10.20;99.90
10312;DHT22;5201;48.776;9.128;2022-11-15T06:51:32;10.10;99.90
10312;DHT22;5201;48.776;9.128;2022-11-15T06:53:58;10.20;99.90
10312;DHT22;5201;48.776;9.128;2022-11-15T06:56:23;10.20;99.90
10312;DHT22;5201;48.776;9.128;2022-11-15T06:58:49;10.30;99.90
10312;DHT22;5201;48.776;9.128;2022-11-15T07:01:15;10.20;99.90
10312;DHT22;5201;48.776;9.128;2022-11-15T07:03:42;10.30;99.90
10312;DHT22;5201;48.776;9.128;2022-11-15T07:06:09;10.40;99.90
10312;DHT22;5201;48.776;9.128;2022-11-15T07:08:35;10.90;99.90
10312;DHT22;5201;48.776;9.128;2022-11-15T07:11:03;10.40;99.90
10312;DHT22;5201;48.776;9.128;2022-11-15T07:13:30;10.40;99.90
10312;DHT22;5201;48.776;9.128;2022-11-15T07:16:01;10.40;99.90
10312;DHT22;5201;48.776;9.128;2022-11-15T07:18:27;10.40;99.90
10312;DHT22;5201;48.776;9.128;2022-11-15T07:20:52;10.50;99.90
10312;DHT22;5201;48.776;9.128;2022-11-15T07:23:18;10.40;99.90
10312;DHT22;5201;48.776;9.128;2022-11-15T07:25:43;10.50;99.90
10312;DHT22;5201;48.776;9.128;2022-11-15T07:28:09;10.60;99.90
10312;DHT22;5201;48.776;9.128;2022-11-15T07:30:35;10.70;99.90
10312;DHT22;5201;48.776;9.128;2022-11-15T07:33:01;10.70;99.90
10312;DHT22;5201;48.776;9.128;2022-11-15T07:35:28;10.80;99.90
10312;DHT22;5201;48.776;9.128;2022-11-15T07:37:55;10.90;99.90
10312;DHT22;5201;48.776;9.128;2022-11-15T07:40:21;10.90;99.90
10312;DHT22;5201;48.776;9.128;2022-11-15T07:42:46;11.00;99.90
10312;DHT22;5201;48.776;9.128;2022-11-15T07:45:18;11.10;99.90
10312;DHT22;5201;48.776;9.128;2022-11-15T07:47:48;11.30;99.90
10312;DHT22;5201;48.776;9.128;2022-11-15T07:50:14;11.20;99.90
10312;DHT22;5201;48.776;9.128;2022-11-15T07:52:39;11.20;99.90
10312;DHT22;5201;48.776;9.128;2022-11-15T07:55:05;11.10;99.90
10312;DHT22;5201;48.776;9.128;2022-11-15T07:57:31;11.20;99.90
10312;DHT22;5201;48.776;9.128;2022-11-15T07:59:56;11.30;99.90
10312;DHT22;5201;48.776;9.128;2022-11-15T08:02:22;11.40;99.90
10312;DHT22;5201;48.776;9.128;2022-11-15T08:04:48;11.50;99.90
10312;DHT22;5201;48.776;9.128;2022-11-15T08:07:13;11.50;99.90
10312;DHT22;5201;48.776;9.128;2022-11-15T08:09:39;11.50;99.90
10312;DHT22;5201;48.776;9.128;2022-11-15T08:12:05;11.80;99.90
10312;DHT22;5201;48.776;9.128;2022-11-15T08:14:30;11.60;99.90
10312;DHT22;5201;48.776;9.128;2022-11-15T08:16:56;12.10;99.90
10312;DHT22;5201;48.776;9.128;2022-11-15T08:19:22;11.70;99.90
10312;DHT22;5201;48.776;9.128;2022-11-15T08:21:47;12.10;99.90
10312;DHT22;5201;48.776;9.128;2022-11-15T08:24:13;11.80;99.90
10312;DHT22;5201;48.776;9.128;2022-11-15T08:26:39;11.70;99.90
10312;DHT22;5201;48.776;9.128;2022-11-15T08:29:05;11.80;99.90
10312;DHT22;5201;48.776;9.128;2022-11-15T08:31:31;11.80;99.90
10312;DHT22;5201;48.776;9.128;2022-11-15T08:33:56;11.80;99.90
10312;DHT22;5201;48.776;9.128;2022-11-15T08:36:22;11.90;99.90
10312;DHT22;5201;48.776;9.128;2022-11-15T08:38:48;11.90;99.90
10312;DHT22;5201;48.776;9.128;2022-11-15T08:41:25;11.90;99.90
10312;DHT22;5201;48.776;9.128;2022-11-15T08:43:51;11.90;99.90
10312;DHT22;5201;48.776;9.128;2022-11-15T08:46:17;11.90;99.90
10312;DHT22;5201;48.776;9.128;2022-11-15T08:48:43;11.90;99.90
10312;DHT22;5201;48.776;9.128;2022-11-15T08:51:09;12.00;99.90
10312;DHT22;5201;48.776;9.128;2022-11-15T08:53:35;12.10;99.90
10312;DHT22;5201;48.776;9.128;2022-11-15T08:56:01;12.60;99.90
10312;DHT22;5201;48.776;9.128;2022-11-15T08:58:27;12.20;99.90
10312;DHT22;5201;48.776;9.128;2022-11-15T09:00:52;12.30;99.90
10312;DHT22;5201;48.776;9.128;2022-11-15T09:03:18;12.40;99.90
10312;DHT22;5201;48.776;9.128;2022-11-15T09:05:44;13.50;99.90
10312;DHT22;5201;48.776;9.128;2022-11-15T09:08:09;12.50;99.90
10312;DHT22;5201;48.776;9.128;2022-11-15T09:10:35;13.00;99.90
10312;DHT22;5201;48.776;9.128;2022-11-15T09:13:01;12.70;99.90
10312;DHT22;5201;48.776;9.128;2022-11-15T09:15:27;12.70;99.90
10312;DHT22;5201;48.776;9.128;2022-11-15T09:17:53;12.80;99.90
10312;DHT22;5201;48.776;9.128;2022-11-15T09:20:18;12.90;99.90
10312;DHT22;5201;48.776;9.128;2022-11-15T09:22:44;13.70;99.90
10312;DHT22;5201;48.776;9.128;2022-11-15T09:25:09;13.10;99.90
10312;DHT22;5201;48.776;9.128;2022-11-15T09:27:35;13.70;99.90
10312;DHT22;5201;48.776;9.128;2022-11-15T09:30:01;13.40;99.90
10312;DHT22;5201;48.776;9.128;2022-11-15T09:32:30;13.40;99.90
10312;DHT22;5201;48.776;9.128;2022-11-15T09:34:55;13.40;99.90
10312;DHT22;5201;48.776;9.128;2022-11-15T09:37:21;13.40;99.90
10312;DHT22;5201;48.776;9.128;2022-11-15T09:39:47;13.60;99.90
10312;DHT22;5201;48.776;9.128;2022-11-15T09:47:55;14.10;99.90
10312;DHT22;5201;48.776;9.128;2022-11-15T09:50:48;14.50;99.90
10312;DHT22;5201;48.776;9.128;2022-11-15T09:56:30;14.10;99.90
10312;DHT22;5201;48.776;9.128;2022-11-15T09:58:59;14.10;99.90
10312;DHT22;5201;48.776;9.128;2022-11-15T10:04:15;15.60;99.90
10312;DHT22;5201;48.776;9.128;2022-11-15T10:06:58;14.10;99.90
10312;DHT22;5201;48.776;9.128;2022-11-15T10:09:51;14.20;99.90
10312;DHT22;5201;48.776;9.128;2022-11-15T10:12:14;14.20;99.90
10312;DHT22;5201;48.776;9.128;2022-11-15T10:14:41;14.20;99.90
10312;DHT22;5201;48.776;9.128;2022-11-15T10:27:29;14.40;99.90
10312;DHT22;5201;48.776;9.128;2022-11-15T10:29:55;14.40;99.90
10312;DHT22;5201;48.776;9.128;2022-11-15T10:32:21;14.40;99.90
10312;DHT22;5201;48.776;9.128;2022-11-15T10:34:48;14.40;99.90
10312;DHT22;5201;48.776;9.128;2022-11-15T10:37:14;14.30;99.90
10312;DHT22;5201;48.776;9.128;2022-11-15T10:39:40;14.20;99.90
10312;DHT22;5201;48.776;9.128;2022-11-15T10:42:26;14.30;99.90
10312;DHT22;5201;48.776;9.128;2022-11-15T10:44:52;14.50;99.90
10312;DHT22;5201;48.776;9.128;2022-11-15T10:47:25;14.30;99.90
10312;DHT22;5201;48.776;9.128;2022-11-15T10:50:06;14.30;99.90
10312;DHT22;5201;48.776;9.128;2022-11-15T10:52:34;14.40;99.90
10312;DHT22;5201;48.776;9.128;2022-11-15T10:55:05;14.60;99.90
10312;DHT22;5201;48.776;9.128;2022-11-15T10:57:36;14.70;99.90
10312;DHT22;5201;48.776;9.128;2022-11-15T11:05:34;14.90;99.90
10312;DHT22;5201;48.776;9.128;2022-11-15T11:08:02;14.70;99.90
10312;DHT22;5201;48.776;9.128;2022-11-15T11:10:29;15.00;99.90
10312;DHT22;5201;48.776;9.128;2022-11-15T11:12:55;14.80;99.90
10312;DHT22;5201;48.776;9.128;2022-11-15T11:15:23;14.90;99.90
10312;DHT22;5201;48.776;9.128;2022-11-15T11:20:46;14.90;99.90
10312;DHT22;5201;48.776;9.128;2022-11-15T11:31:35;15.10;99.90
10312;DHT22;5201;48.776;9.128;2022-11-15T11:36:54;14.90;99.90
10312;DHT22;5201;48.776;9.128;2022-11-15T11:42:36;14.90;99.90
10312;DHT22;5201;48.776;9.128;2022-11-15T11:45:20;14.80;99.90
10312;DHT22;5201;48.776;9.128;2022-11-15T11:48:14;14.80;99.90
10312;DHT22;5201;48.776;9.128;2022-11-15T11:50:45;14.90;99.90
10312;DHT22;5201;48.776;9.128;2022-11-15T11:53:12;15.10;99.90
10312;DHT22;5201;48.776;9.128;2022-11-15T11:55:51;15.10;99.90
10312;DHT22;5201;48.776;9.128;2022-11-15T11:58:37;15.00;99.90
10312;DHT22;5201;48.776;9.128;2022-11-15T12:01:26;15.20;99.90
10312;DHT22;5201;48.776;9.128;2022-11-15T12:09:21;15.30;99.90
10312;DHT22;5201;48.776;9.128;2022-11-15T12:12:15;15.40;99.90
10312;DHT22;5201;48.776;9.128;2022-11-15T12:17:20;15.50;99.90
10312;DHT22;5201;48.776;9.128;2022-11-15T12:19:47;15.50;99.90
10312;DHT22;5201;48.776;9.128;2022-11-15T12:22:19;15.90;99.90
10312;DHT22;5201;48.776;9.128;2022-11-15T12:24:57;15.70;99.90
10312;DHT22;5201;48.776;9.128;2022-11-15T12:30:03;15.60;99.90
10312;DHT22;5201;48.776;9.128;2022-11-15T12:32:33;15.60;99.90
10312;DHT22;5201;48.776;9.128;2022-11-15T12:35:02;15.60;99.90
10312;DHT22;5201;48.776;9.128;2022-11-15T12:42:40;15.60;99.90
10312;DHT22;5201;48.776;9.128;2022-11-15T12:45:50;16.10;99.90
10312;DHT22;5201;48.776;9.128;2022-11-15T12:56:20;15.30;99.90
10312;DHT22;5201;48.776;9.128;2022-11-15T12:58:47;15.40;99.90
10312;DHT22;5201;48.776;9.128;2022-11-15T13:06:48;15.40;99.90
10312;DHT22;5201;48.776;9.128;2022-11-15T13:11:58;15.10;99.90
10312;DHT22;5201;48.776;9.128;2022-11-15T13:19:43;14.90;99.90
10312;DHT22;5201;48.776;9.128;2022-11-15T13:22:10;14.90;99.90
10312;DHT22;5201;48.776;9.128;2022-11-15T13:24:55;14.90;99.90
10312;DHT22;5201;48.776;9.128;2022-11-15T13:27:20;14.90;99.90
10312;DHT22;5201;48.776;9.128;2022-11-15T13:29:46;15.00;99.90
10312;DHT22;5201;48.776;9.128;2022-11-15T13:32:13;15.00;99.90
10312;DHT22;5201;48.776;9.128;2022-11-15T13:34:44;14.90;99.90
10312;DHT22;5201;48.776;9.128;2022-11-15T13:39:50;14.80;99.90
10312;DHT22;5201;48.776;9.128;2022-11-15T13:42:17;14.70;99.90
10312;DHT22;5201;48.776;9.128;2022-11-15T13:44:57;14.80;99.90
10312;DHT22;5201;48.776;9.128;2022-11-15T13:47:26;15.00;99.90
10312;DHT22;5201;48.776;9.128;2022-11-15T13:49:52;15.00;99.90
10312;DHT22;5201;48.776;9.128;2022-11-15T13:52:19;15.00;99.90
10312;DHT22;5201;48.776;9.128;2022-11-15T13:55:08;15.60;99.90
10312;DHT22;5201;48.776;9.128;2022-11-15T13:57:59;15.00;99.90
10312;DHT22;5201;48.776;9.128;2022-11-15T14:00:41;15.00;99.90
10312;DHT22;5201;48.776;9.128;2022-11-15T14:05:43;14.80;99.90
10312;DHT22;5201;48.776;9.128;2022-11-15T14:08:22;14.80;99.90
10312;DHT22;5201;48.776;9.128;2022-11-15T14:11:26;14.60;99.90
10312;DHT22;5201;48.776;9.128;2022-11-15T14:14:12;14.60;99.90
10312;DHT22;5201;48.776;9.128;2022-11-15T14:16:40;14.50;99.90
10312;DHT22;5201;48.776;9.128;2022-11-15T14:19:10;14.40;99.90
10312;DHT22;5201;48.776;9.128;2022-11-15T14:21:36;14.30;99.90
10312;DHT22;5201;48.776;9.128;2022-11-15T14:24:19;14.50;99.90
10312;DHT22;5201;48.776;9.128;2022-11-15T14:26:45;14.30;99.90
10312;DHT22;5201;48.776;9.128;2022-11-15T14:29:29;14.40;99.90
10312;DHT22;5201;48.776;9.128;2022-11-15T14:34:42;14.50;99.90
10312;DHT22;5201;48.776;9.128;2022-11-15T14:37:24;14.40;99.90
10312;DHT22;5201;48.776;9.128;2022-11-15T14:39:51;14.40;99.90
10312;DHT22;5201;48.776;9.128;2022-11-15T14:42:17;14.50;99.90
10312;DHT22;5201;48.776;9.128;2022-11-15T14:44:43;14.50;99.90
10312;DHT22;5201;48.776;9.128;2022-11-15T14:47:09;14.40;99.90
10312;DHT22;5201;48.776;9.128;2022-11-15T14:49:34;14.50;99.90
10312;DHT22;5201;48.776;9.128;2022-11-15T14:52:00;14.40;99.90
10312;DHT22;5201;48.776;9.128;2022-11-15T14:54:25;14.40;99.90
10312;DHT22;5201;48.776;9.128;2022-11-15T14:56:51;14.30;99.90
10312;DHT22;5201;48.776;9.128;2022-11-15T14:59:16;14.30;99.90
10312;DHT22;5201;48.776;9.128;2022-11-15T15:01:42;14.30;99.90
10312;DHT22;5201;48.776;9.128;2022-11-15T15:04:10;14.30;99.90
10312;DHT22;5201;48.776;9.128;2022-11-15T15:06:35;14.40;99.90
10312;DHT22;5201;48.776;9.128;2022-11-15T15:09:01;14.40;99.90
10312;DHT22;5201;48.776;9.128;2022-11-15T15:11:29;14.70;99.90
10312;DHT22;5201;48.776;9.128;2022-11-15T15:13:55;14.30;99.90
10312;DHT22;5201;48.776;9.128;2022-11-15T15:16:23;14.20;99.90
10312;DHT22;5201;48.776;9.128;2022-11-15T15:18:49;14.20;99.90
10312;DHT22;5201;48.776;9.128;2022-11-15T15:21:23;14.20;99.90
10312;DHT22;5201;48.776;9.128;2022-11-15T15:23:50;14.00;99.90
10312;DHT22;5201;48.776;9.128;2022-11-15T15:26:16;14.10;99.90
10312;DHT22;5201;48.776;9.128;2022-11-15T15:28:41;14.50;99.90
10312;DHT22;5201;48.776;9.128;2022-11-15T15:31:08;14.00;99.90
10312;DHT22;5201;48.776;9.128;2022-11-15T15:33:34;13.90;99.90
10312;DHT22;5201;48.776;9.128;2022-11-15T15:36:00;13.80;99.90
10312;DHT22;5201;48.776;9.128;2022-11-15T15:38:25;14.30;99.90
10312;DHT22;5201;48.776;9.128;2022-11-15T15:40:51;13.70;99.90
10312;DHT22;5201;48.776;9.128;2022-11-15T15:43:17;13.60;99.90
10312;DHT22;5201;48.776;9.128;2022-11-15T15:45:42;13.60;99.90
10312;DHT22;5201;48.776;9.128;2022-11-15T15:48:14;13.70;99.90
10312;DHT22;5201;48.776;9.128;2022-11-15T15:50:41;14.00;99.90
10312;DHT22;5201;48.776;9.128;2022-11-15T15:53:09;14.00;99.90
10312;DHT22;5201;48.776;9.128;2022-11-15T15:55:36;13.70;99.90
10312;DHT22;5201;48.776;9.128;2022-11-15T15:58:03;13.60;99.90
10312;DHT22;5201;48.776;9.128;2022-11-15T16:00:29;13.70;99.90
10312;DHT22;5201;48.776;9.128;2022-11-15T16:02:54;13.50;99.90
10312;DHT22;5201;48.776;9.128;2022-11-15T16:05:21;14.10;99.90
10312;DHT22;5201;48.776;9.128;2022-11-15T16:07:47;13.50;99.90
10312;DHT22;5201;48.776;9.128;2022-11-15T16:10:24;14.50;99.90
10312;DHT22;5201;48.776;9.128;2022-11-15T16:12:51;13.50;99.90
10312;DHT22;5201;48.776;9.128;2022-11-15T16:15:17;13.70;99.90
10312;DHT22;5201;48.776;9.128;2022-11-15T16:18:12;14.60;99.90
10312;DHT22;5201;48.776;9.128;2022-11-15T16:20:43;13.40;99.90
10312;DHT22;5201;48.776;9.128;2022-11-15T16:23:12;13.30;99.90
10312;DHT22;5201;48.776;9.128;2022-11-15T16:25:52;13.30;99.90
10312;DHT22;5201;48.776;9.128;2022-11-15T16:28:27;13.30;99.90
10312;DHT22;5201;48.776;9.128;2022-11-15T16:31:11;13.30;99.90
10312;DHT22;5201;48.776;9.128;2022-11-15T16:33:38;13.40;99.90
10312;DHT22;5201;48.776;9.128;2022-11-15T16:36:05;13.50;99.90
10312;DHT22;5201;48.776;9.128;2022-11-15T16:38:31;13.40;99.90
10312;DHT22;5201;48.776;9.128;2022-11-15T16:40:57;13.40;99.90
10312;DHT22;5201;48.776;9.128;2022-11-15T16:43:22;13.40;99.90
10312;DHT22;5201;48.776;9.128;2022-11-15T16:45:49;13.50;99.90
10312;DHT22;5201;48.776;9.128;2022-11-15T16:48:23;13.60;99.90
10312;DHT22;5201;48.776;9.128;2022-11-15T16:50:50;13.60;99.90
10312;DHT22;5201;48.776;9.128;2022-11-15T16:53:16;13.60;99.90
10312;DHT22;5201;48.776;9.128;2022-11-15T16:55:41;14.10;99.90
10312;DHT22;5201;48.776;9.128;2022-11-15T16:58:08;14.10;99.90
10312;DHT22;5201;48.776;9.128;2022-11-15T17:00:34;13.80;99.90
10312;DHT22;5201;48.776;9.128;2022-11-15T17:02:59;14.20;99.90
10312;DHT22;5201;48.776;9.128;2022-11-15T17:05:25;13.80;99.90
10312;DHT22;5201;48.776;9.128;2022-11-15T17:07:54;13.80;99.90
10312;DHT22;5201;48.776;9.128;2022-11-15T17:10:25;13.80;99.90
10312;DHT22;5201;48.776;9.128;2022-11-15T17:12:51;13.70;99.90
10312;DHT22;5201;48.776;9.128;2022-11-15T17:15:17;13.80;99.90
10312;DHT22;5201;48.776;9.128;2022-11-15T17:17:44;13.80;99.90
10312;DHT22;5201;48.776;9.128;2022-11-15T17:20:15;13.70;99.90
10312;DHT22;5201;48.776;9.128;2022-11-15T17:22:41;13.70;99.90
10312;DHT22;5201;48.776;9.128;2022-11-15T17:25:06;13.70;99.90
10312;DHT22;5201;48.776;9.128;2022-11-15T17:27:32;13.60;99.90
10312;DHT22;5201;48.776;9.128;2022-11-15T17:29:57;13.60;99.90
10312;DHT22;5201;48.776;9.128;2022-11-15T17:32:23;13.50;99.90
10312;DHT22;5201;48.776;9.128;2022-11-15T17:34:49;14.20;99.90
10312;DHT22;5201;48.776;9.128;2022-11-15T17:37:14;13.40;99.90
10312;DHT22;5201;48.776;9.128;2022-11-15T17:39:40;13.30;99.90
10312;DHT22;5201;48.776;9.128;2022-11-15T17:42:05;13.30;99.90
10312;DHT22;5201;48.776;9.128;2022-11-15T17:44:31;13.50;99.90
10312;DHT22;5201;48.776;9.128;2022-11-15T17:46:57;13.40;99.90
10312;DHT22;5201;48.776;9.128;2022-11-15T17:49:23;13.30;99.90
10312;DHT22;5201;48.776;9.128;2022-11-15T17:51:48;13.60;99.90
10312;DHT22;5201;48.776;9.128;2022-11-15T17:54:14;13.30;99.90
10312;DHT22;5201;48.776;9.128;2022-11-15T17:56:40;13.90;99.90
10312;DHT22;5201;48.776;9.128;2022-11-15T17:59:06;13.20;99.90